Etusivu
METAR-TAF:

METAR-TAF

Lentoasemat :

Røst, Norja

Leveyspiiri: 67-31N, Pituuspiiri: 012-06E, korkeus merenpinnasta: 4 m

Tämänhetkinen sää

Tämä raportti tehtiin 9 tuntia ja 18 minuuttia sitten, kello 16.50 UTC
Tuuli 19 kn idästä/kaakosta
Lämpötila 7°C
Kosteus 61%
Ilmanpaine 983 hPa
Näkyvyys 10 km tai enemmän
Muutamia pilviä 4000 ft:n korkeudessa

METAR: ENRS 241650Z 11019KT 9999 FEW040 07/M00 Q0983

Aika: 03:08 (02:08 UTC)


TAF: puuttuu

Säähavainnot ja -ennusteet yli 4000 lentoasemalta (METAR- ja TAF-raportit).

Käytössä olevat sääasemat on merkitty karttaan keltaisilla ja punaisilla pisteillä.

Aseta hiiri pisteen päälle nähdäksesi sääaseman nimen.

Klikkaa sitten nähdäksesi säähavainnot ja -ennusteet.

Kartan vaihtaminen: klikkaa mustalla rastilla varustettuja vihreitä pisteitä, niin voit zoomata sisään; viivalla varustettua vihreää pistettä, niin voit zoomata ulos tai vihreitä nuolia, niin pääset viereisille kartoille.


METAR-TAF: